MUHG/HOG METAR and TAF weather

Enter ICAO airport designator
Station Type Date Time Source
MUHG METAR 2019/06/19 05:50 UTC NOAA

MUHG 190550Z 12009KT 9000 FEW020 BKN200 27/24 Q1017


Station Type Date Time Source
MUHG Decoded METAR 2019/06/19 05:50 UTC NOAA

Holguin Civ / Mil , Cuba (MUHG) 20-47N 076-19W
Jun 19, 2019 - 01:50 AM EDT / 2019.06.19 0550 UTC
Wind: from the ESE (120 degrees) at 10 MPH (9 KT):0
Visibility: 5 mile(s):0
Sky conditions: mostly cloudy
Temperature: 80 F (27 C)
Dew Point: 75 F (24 C)
Relative Humidity: 83%
Pressure (altimeter): 30.03 in. Hg (1017 hPa)
ob: MUHG 190550Z 12009KT 9000 FEW020 BKN200 27/24 Q1017
cycle: 6

Station Type Date Time Source
MUHG TAF 2019/06/19 06:03 UTC NOAA

TAF MUHG 190500Z 1906/2006 12007KT 9000 FEW020 BKN300
BECMG 1915/1917 12010KT SCT020
BECMG 2001/2003 VRB03KT FEW020

Example: see airport list